Time;durP1;ratioP1;P1;durP2;ratioP2;P2;SDS_P1;SDS_P2;PMS_P1;PMS_P2;Temp;Humidity;BMP_temperature;BMP_pressure;BME280_temperature;BME280_humidity;BME280_pressure;Samples;Min_cycle;Max_cycle;Signal;HPM_P1;HPM_P2
2023/05/20 00:02:15;;;;;;;;;10.50;10.50;;;;;;;;5064212;28;10362;-80
2023/05/20 00:04:43;;;;;;;;;10.25;10.25;;;;;;;;5066849;28;9534;-84
2023/05/20 00:07:10;;;;;;;;;12.50;12.50;;;;;;;;5065206;28;9810;-85
2023/05/20 00:09:40;;;;;;;;;17.75;15.75;;;;;;;;5070105;28;9626;-85
2023/05/20 00:12:07;;;;;;;;;13.50;13.50;;;;;;;;5064874;28;9550;-85
2023/05/20 00:14:35;;;;;;;;;16.25;13.00;;;;;;;;5076957;28;9490;-84
2023/05/20 00:17:02;;;;;;;;;16.75;13.25;;;;;;;;5076592;28;9536;-85
2023/05/20 00:19:29;;;;;;;;;14.25;12.00;;;;;;;;5063038;28;9788;-86
2023/05/20 00:21:57;;;;;;;;;14.00;12.00;;;;;;;;5060459;28;9533;-85
2023/05/20 00:24:25;;;;;;;;;14.75;14.75;;;;;;;;5061792;28;9461;-86
2023/05/20 00:26:54;;;;;;;;;13.00;13.00;;;;;;;;5056081;28;9540;-84
2023/05/20 00:29:22;;;;;;;;;14.00;14.00;;;;;;;;5067715;28;9532;-83
2023/05/20 00:31:49;;;;;;;;;12.50;11.75;;;;;;;;5060388;28;9487;-86
2023/05/20 00:34:16;;;;;;;;;17.00;16.25;;;;;;;;5066228;28;9631;-86
2023/05/20 00:36:43;;;;;;;;;17.75;13.50;;;;;;;;5056856;28;9554;-86
2023/05/20 00:39:11;;;;;;;;;16.25;14.50;;;;;;;;5053779;28;9622;-86
2023/05/20 00:41:38;;;;;;;;;17.00;17.00;;;;;;;;5070058;28;10037;-85
2023/05/20 00:44:07;;;;;;;;;14.50;12.25;;;;;;;;5056343;28;9600;-85
2023/05/20 00:46:34;;;;;;;;;15.75;15.75;;;;;;;;5061674;28;9703;-84
2023/05/20 00:49:02;;;;;;;;;20.25;17.50;;;;;;;;5068587;28;9633;-84
2023/05/20 00:51:29;;;;;;;;;12.25;12.25;;;;;;;;5057131;28;9620;-84
2023/05/20 00:53:59;;;;;;;;;15.00;15.00;;;;;;;;5069859;28;9710;-86
2023/05/20 00:56:28;;;;;;;;;18.50;17.25;;;;;;;;5060536;28;9657;-85
2023/05/20 00:58:56;;;;;;;;;19.25;19.25;;;;;;;;5056895;28;10467;-82
2023/05/20 01:01:24;;;;;;;;;18.50;15.25;;;;;;;;5057732;28;9720;-84
2023/05/20 01:03:52;;;;;;;;;15.25;13.75;;;;;;;;5053791;28;9702;-87
2023/05/20 01:06:19;;;;;;;;;19.75;15.75;;;;;;;;5059275;28;9858;-86
2023/05/20 01:08:48;;;;;;;;;19.25;19.25;;;;;;;;5055859;28;9805;-85
2023/05/20 01:11:22;;;;;;;;;18.00;14.50;;;;;;;;5055562;28;9704;-84
2023/05/20 01:13:54;;;;;;;;;21.75;18.50;;;;;;;;5068377;28;9803;-84
2023/05/20 01:16:26;;;;;;;;;15.50;15.50;;;;;;;;5053218;28;10649;-84
2023/05/20 01:18:56;;;;;;;;;14.50;14.50;;;;;;;;5053291;28;9779;-84
2023/05/20 01:21:24;;;;;;;;;16.00;13.25;;;;;;;;5061363;28;9692;-85
2023/05/20 01:23:52;;;;;;;;;14.00;14.00;;;;;;;;5068707;28;10628;-83
2023/05/20 01:26:20;;;;;;;;;17.00;15.25;;;;;;;;5068026;28;9840;-83
2023/05/20 01:28:49;;;;;;;;;20.00;15.75;;;;;;;;5065416;28;10062;-83
2023/05/20 01:31:21;;;;;;;;;15.00;14.00;;;;;;;;5061817;28;9954;-83
2023/05/20 01:33:56;;;;;;;;;17.25;17.25;;;;;;;;5072961;28;10106;-86
2023/05/20 01:36:25;;;;;;;;;19.75;19.00;;;;;;;;5061414;28;10040;-85
2023/05/20 01:38:54;;;;;;;;;16.25;16.00;;;;;;;;5064890;28;10189;-84
2023/05/20 01:41:21;;;;;;;;;17.75;16.75;;;;;;;;5066794;28;10135;-85
2023/05/20 01:43:49;;;;;;;;;16.00;13.50;;;;;;;;5062739;28;10826;-84
2023/05/20 01:46:17;;;;;;;;;18.50;16.75;;;;;;;;5065964;28;10099;-84
2023/05/20 01:48:44;;;;;;;;;19.50;17.25;;;;;;;;5066275;28;10920;-84
2023/05/20 01:51:11;;;;;;;;;19.75;16.75;;;;;;;;5068587;28;10259;-84
2023/05/20 01:53:39;;;;;;;;;20.50;17.50;;;;;;;;5075773;28;10197;-85
2023/05/20 01:56:08;;;;;;;;;22.25;20.75;;;;;;;;5073489;28;10175;-83
2023/05/20 01:58:35;;;;;;;;;21.50;17.25;;;;;;;;5063896;28;10399;-84
2023/05/20 02:01:02;;;;;;;;;21.25;18.50;;;;;;;;5064160;28;10083;-85
2023/05/20 02:03:30;;;;;;;;;16.25;12.00;;;;;;;;5068683;28;10227;-84
2023/05/20 02:05:57;;;;;;;;;21.50;19.25;;;;;;;;5057235;28;10191;-85
2023/05/20 02:08:24;;;;;;;;;19.75;19.75;;;;;;;;5072164;28;10302;-85
2023/05/20 02:10:51;;;;;;;;;20.00;18.50;;;;;;;;5069882;28;10381;-85
2023/05/20 02:13:20;;;;;;;;;16.75;15.50;;;;;;;;5070577;28;10260;-84
2023/05/20 02:15:47;;;;;;;;;28.50;24.00;;;;;;;;5069277;28;11114;-85
2023/05/20 02:18:17;;;;;;;;;22.75;19.50;;;;;;;;5070233;28;10456;-85
2023/05/20 02:20:44;;;;;;;;;23.75;20.50;;;;;;;;5069077;28;10358;-85
2023/05/20 02:23:11;;;;;;;;;17.00;16.25;;;;;;;;5071150;28;10502;-84
2023/05/20 02:25:39;;;;;;;;;17.50;17.50;;;;;;;;5074238;28;10186;-85
2023/05/20 02:28:09;;;;;;;;;20.75;19.00;;;;;;;;5069895;28;10443;-86
2023/05/20 02:30:38;;;;;;;;;19.50;19.50;;;;;;;;5061400;28;10340;-86
2023/05/20 02:33:05;;;;;;;;;17.75;17.75;;;;;;;;5058865;28;11156;-86
2023/05/20 02:35:32;;;;;;;;;22.50;20.75;;;;;;;;5060556;28;10415;-86
2023/05/20 02:38:00;;;;;;;;;22.00;20.75;;;;;;;;5079873;28;10551;-87
2023/05/20 02:40:27;;;;;;;;;20.00;18.00;;;;;;;;5071583;28;10540;-85
2023/05/20 02:42:54;;;;;;;;;22.25;20.50;;;;;;;;5070578;28;10423;-86
2023/05/20 02:45:25;;;;;;;;;21.50;21.25;;;;;;;;5061627;28;10473;-86
2023/05/20 02:47:53;;;;;;;;;17.50;15.50;;;;;;;;5064423;28;10434;-85
2023/05/20 02:50:21;;;;;;;;;23.00;22.50;;;;;;;;5060369;28;10343;-85
2023/05/20 02:52:48;;;;;;;;;20.25;18.75;;;;;;;;5070233;28;10500;-84
2023/05/20 02:55:15;;;;;;;;;16.50;14.75;;;;;;;;5061708;28;10445;-82
2023/05/20 02:57:43;;;;;;;;;28.00;23.25;;;;;;;;5066825;28;10399;-83
2023/05/20 03:00:13;;;;;;;;;22.25;22.25;;;;;;;;5071493;28;10570;-84
2023/05/20 03:02:40;;;;;;;;;23.50;19.50;;;;;;;;5064748;28;10569;-84
2023/05/20 03:05:09;;;;;;;;;21.00;20.00;;;;;;;;5062228;28;10631;-84
2023/05/20 03:07:37;;;;;;;;;23.25;20.75;;;;;;;;5053226;28;10622;-84
2023/05/20 03:10:05;;;;;;;;;21.75;20.50;;;;;;;;5062728;28;10559;-84
2023/05/20 03:12:32;;;;;;;;;18.50;16.75;;;;;;;;5056598;28;10715;-84
2023/05/20 03:14:59;;;;;;;;;28.50;26.50;;;;;;;;5064984;28;10740;-85
2023/05/20 03:17:27;;;;;;;;;24.50;23.00;;;;;;;;5059505;28;10592;-84
2023/05/20 03:19:55;;;;;;;;;20.00;18.75;;;;;;;;5053014;28;10780;-85
2023/05/20 03:22:23;;;;;;;;;25.25;25.25;;;;;;;;5065531;28;10944;-84
2023/05/20 03:24:51;;;;;;;;;24.25;23.25;;;;;;;;5058077;28;10681;-84
2023/05/20 03:27:18;;;;;;;;;26.00;24.50;;;;;;;;5069194;28;10754;-85
2023/05/20 03:29:47;;;;;;;;;25.00;25.00;;;;;;;;5067356;28;10885;-84
2023/05/20 03:32:14;;;;;;;;;26.50;25.50;;;;;;;;5062224;28;10650;-83
2023/05/20 03:34:41;;;;;;;;;25.75;24.00;;;;;;;;5061710;28;10881;-83
2023/05/20 03:37:09;;;;;;;;;25.00;23.50;;;;;;;;5065238;28;10941;-83
2023/05/20 03:39:37;;;;;;;;;37.00;29.50;;;;;;;;5064336;28;10840;-83
2023/05/20 03:42:06;;;;;;;;;29.25;24.75;;;;;;;;5070024;28;11006;-84
2023/05/20 03:44:33;;;;;;;;;26.25;25.75;;;;;;;;5060288;28;10932;-84
2023/05/20 03:47:01;;;;;;;;;24.00;18.50;;;;;;;;5067349;28;10993;-84
2023/05/20 03:49:30;;;;;;;;;31.75;25.00;;;;;;;;5068335;28;11087;-84
2023/05/20 03:51:57;;;;;;;;;27.00;25.25;;;;;;;;5059698;28;10976;-84
2023/05/20 03:54:25;;;;;;;;;21.00;20.50;;;;;;;;5062436;28;10767;-84
2023/05/20 03:56:53;;;;;;;;;29.25;24.75;;;;;;;;5065937;28;10669;-85
2023/05/20 03:59:21;;;;;;;;;23.50;23.50;;;;;;;;5077474;28;10768;-84
2023/05/20 04:01:48;;;;;;;;;25.75;24.50;;;;;;;;5063146;28;10597;-85
2023/05/20 04:04:16;;;;;;;;;31.75;26.75;;;;;;;;5065665;28;10839;-85
2023/05/20 04:06:43;;;;;;;;;29.25;28.00;;;;;;;;5066133;28;10740;-85
2023/05/20 04:09:10;;;;;;;;;30.50;27.50;;;;;;;;5070066;28;11504;-84
2023/05/20 04:11:38;;;;;;;;;37.50;31.25;;;;;;;;5069462;28;10738;-84
2023/05/20 04:14:06;;;;;;;;;30.00;28.50;;;;;;;;5065403;28;10947;-82
2023/05/20 04:16:36;;;;;;;;;29.50;28.75;;;;;;;;5061672;28;10744;-84
2023/05/20 04:19:03;;;;;;;;;31.25;28.75;;;;;;;;5069606;28;10691;-84
2023/05/20 04:21:31;;;;;;;;;28.75;27.00;;;;;;;;5066010;28;10650;-84
2023/05/20 04:24:01;;;;;;;;;32.75;28.75;;;;;;;;5070595;28;10530;-84
2023/05/20 04:26:28;;;;;;;;;24.50;24.50;;;;;;;;5057519;28;10861;-83
2023/05/20 04:28:57;;;;;;;;;31.00;29.25;;;;;;;;5063112;28;10541;-85
2023/05/20 04:31:26;;;;;;;;;33.25;31.25;;;;;;;;5063359;28;10722;-85
2023/05/20 04:33:53;;;;;;;;;30.00;28.00;;;;;;;;5067292;28;10679;-85
2023/05/20 04:36:21;;;;;;;;;32.75;27.75;;;;;;;;5062775;28;10462;-86
2023/05/20 04:38:49;;;;;;;;;28.25;27.50;;;;;;;;5063147;28;10524;-85
2023/05/20 04:41:16;;;;;;;;;30.25;27.50;;;;;;;;5058245;28;10585;-84
2023/05/20 04:43:44;;;;;;;;;25.75;22.25;;;;;;;;5064382;28;10575;-84
2023/05/20 04:46:12;;;;;;;;;31.50;27.75;;;;;;;;5060745;28;10550;-84
2023/05/20 04:48:42;;;;;;;;;28.00;26.50;;;;;;;;5068634;28;10361;-83
2023/05/20 04:51:10;;;;;;;;;30.50;28.50;;;;;;;;5074085;28;10472;-83
2023/05/20 04:53:37;;;;;;;;;27.00;27.00;;;;;;;;5060455;28;10761;-83
2023/05/20 04:56:05;;;;;;;;;27.75;27.75;;;;;;;;5051892;28;10509;-83
2023/05/20 04:58:32;;;;;;;;;35.75;32.75;;;;;;;;5061590;28;10583;-84
2023/05/20 05:01:00;;;;;;;;;26.25;26.25;;;;;;;;5067299;28;10550;-84
2023/05/20 05:03:29;;;;;;;;;29.75;26.25;;;;;;;;5057247;28;10438;-84
2023/05/20 05:05:59;;;;;;;;;31.00;28.75;;;;;;;;5057738;28;10430;-84
2023/05/20 05:08:26;;;;;;;;;30.50;29.00;;;;;;;;5053323;28;10519;-84
2023/05/20 05:10:53;;;;;;;;;23.25;23.25;;;;;;;;5062094;28;10366;-83
2023/05/20 05:13:20;;;;;;;;;25.25;23.75;;;;;;;;5053368;28;10678;-85
2023/05/20 05:15:48;;;;;;;;;29.50;26.75;;;;;;;;5050119;28;10434;-85
2023/05/20 05:18:17;;;;;;;;;25.50;22.50;;;;;;;;5059216;28;10621;-84
2023/05/20 05:20:44;;;;;;;;;29.25;28.75;;;;;;;;5056659;28;10372;-85
2023/05/20 05:23:13;;;;;;;;;29.50;28.50;;;;;;;;5059334;28;10439;-84
2023/05/20 05:25:40;;;;;;;;;25.00;22.50;;;;;;;;5066737;28;10346;-85
2023/05/20 05:28:07;;;;;;;;;31.50;29.50;;;;;;;;5056024;28;10404;-83
2023/05/20 05:30:36;;;;;;;;;33.75;32.00;;;;;;;;5064050;28;10453;-84
2023/05/20 05:33:03;;;;;;;;;30.75;28.50;;;;;;;;5068220;28;10450;-83
2023/05/20 05:35:30;;;;;;;;;38.50;32.25;;;;;;;;5048403;28;10329;-83
2023/05/20 05:37:58;;;;;;;;;29.75;26.50;;;;;;;;5053926;28;10299;-83
2023/05/20 05:40:26;;;;;;;;;28.75;27.00;;;;;;;;5056648;28;10216;-84
2023/05/20 05:42:54;;;;;;;;;28.00;25.75;;;;;;;;5059611;28;10396;-84
2023/05/20 05:45:21;;;;;;;;;33.75;30.25;;;;;;;;5056038;28;10176;-83
2023/05/20 05:47:48;;;;;;;;;30.00;29.00;;;;;;;;5051628;28;10508;-83
2023/05/20 05:50:15;;;;;;;;;27.75;26.50;;;;;;;;5065207;28;10179;-83
2023/05/20 05:52:43;;;;;;;;;28.50;28.50;;;;;;;;5063487;28;10328;-83
2023/05/20 05:55:11;;;;;;;;;26.00;24.50;;;;;;;;5065941;28;10258;-83
2023/05/20 05:57:40;;;;;;;;;26.75;24.50;;;;;;;;5055195;28;10163;-84
2023/05/20 06:00:08;;;;;;;;;26.25;26.25;;;;;;;;5061942;28;10214;-85
2023/05/20 06:02:36;;;;;;;;;25.50;24.00;;;;;;;;5065244;28;10126;-85
2023/05/20 06:05:03;;;;;;;;;27.50;27.25;;;;;;;;5058060;28;10079;-85
2023/05/20 06:07:30;;;;;;;;;31.00;25.50;;;;;;;;5067875;28;10053;-84
2023/05/20 06:09:58;;;;;;;;;24.75;24.75;;;;;;;;5065635;28;10005;-84
2023/05/20 06:12:25;;;;;;;;;29.50;27.00;;;;;;;;5066749;28;9922;-84
2023/05/20 06:14:54;;;;;;;;;22.50;22.50;;;;;;;;5064125;28;9861;-85
2023/05/20 06:17:21;;;;;;;;;23.25;23.25;;;;;;;;5059025;28;9787;-86
2023/05/20 06:19:49;;;;;;;;;26.00;25.50;;;;;;;;5060581;28;9887;-86
2023/05/20 06:22:16;;;;;;;;;29.25;25.00;;;;;;;;5074543;28;9854;-87
2023/05/20 06:24:43;;;;;;;;;27.75;26.25;;;;;;;;5080767;28;9828;-84
2023/05/20 06:27:11;;;;;;;;;21.25;21.25;;;;;;;;5068018;28;9813;-85
2023/05/20 06:29:38;;;;;;;;;26.75;25.25;;;;;;;;5066030;28;9765;-85
2023/05/20 06:32:07;;;;;;;;;27.25;26.25;;;;;;;;5057054;28;9724;-87
2023/05/20 06:34:35;;;;;;;;;22.50;22.50;;;;;;;;5071393;28;9697;-84
2023/05/20 06:37:02;;;;;;;;;22.50;22.00;;;;;;;;5067765;28;9793;-86
2023/05/20 06:39:29;;;;;;;;;24.00;23.00;;;;;;;;5067949;28;9770;-84
2023/05/20 06:41:56;;;;;;;;;23.00;21.00;;;;;;;;5057071;28;9811;-79
2023/05/20 06:44:23;;;;;;;;;27.50;22.50;;;;;;;;5071008;28;9888;-81
2023/05/20 06:46:51;;;;;;;;;21.00;21.00;;;;;;;;5068731;28;9836;-78
2023/05/20 06:49:19;;;;;;;;;23.00;20.75;;;;;;;;5062677;28;9882;-78
2023/05/20 06:51:46;;;;;;;;;21.75;21.25;;;;;;;;5070705;28;9796;-78
2023/05/20 06:54:14;;;;;;;;;25.50;23.00;;;;;;;;5069727;28;9690;-79
2023/05/20 06:56:41;;;;;;;;;29.50;24.50;;;;;;;;5067783;28;9785;-82
2023/05/20 06:59:08;;;;;;;;;28.00;24.75;;;;;;;;5070621;28;9804;-78
2023/05/20 07:01:35;;;;;;;;;25.75;24.00;;;;;;;;5076362;28;10406;-79
2023/05/20 07:04:03;;;;;;;;;28.50;24.75;;;;;;;;5056397;28;9555;-78
2023/05/20 07:06:31;;;;;;;;;23.50;23.50;;;;;;;;5063914;28;10276;-80
2023/05/20 07:08:59;;;;;;;;;23.67;22.33;;;;;;;;5064071;28;9481;-81
2023/05/20 07:11:27;;;;;;;;;22.00;21.67;;;;;;;;5070409;28;9327;-79
2023/05/20 07:13:54;;;;;;;;;23.00;21.75;;;;;;;;5068822;28;9332;-80
2023/05/20 07:16:21;;;;;;;;;20.33;19.33;;;;;;;;5068750;28;9491;-80
2023/05/20 07:18:48;;;;;;;;;23.00;22.00;;;;;;;;5070080;28;9289;-78
2023/05/20 07:21:16;;;;;;;;;20.67;20.67;;;;;;;;5063095;28;9093;-81
2023/05/20 07:23:45;;;;;;;;;23.67;23.00;;;;;;;;5069720;28;9088;-82
2023/05/20 07:26:12;;;;;;;;;22.75;19.00;;;;;;;;5065648;28;9141;-79
2023/05/20 07:28:39;;;;;;;;;20.50;20.50;;;;;;;;5062285;28;8874;-77
2023/05/20 07:31:07;;;;;;;;;18.33;17.00;;;;;;;;5067111;27;8815;-77
2023/05/20 07:33:34;;;;;;;;;23.00;23.00;;;;;;;;5069589;28;9072;-77
2023/05/20 07:36:01;;;;;;;;;18.75;18.00;;;;;;;;5069271;28;9002;-77
2023/05/20 07:38:31;;;;;;;;;15.75;14.00;;;;;;;;5068795;28;8880;-77
2023/05/20 07:41:00;;;;;;;;;22.75;22.00;;;;;;;;5059570;28;8845;-77
2023/05/20 07:43:28;;;;;;;;;20.00;20.00;;;;;;;;5051703;28;8837;-78
2023/05/20 07:45:55;;;;;;;;;16.50;15.00;;;;;;;;5068836;28;8851;-79
2023/05/20 07:48:22;;;;;;;;;19.50;19.50;;;;;;;;5069202;28;8877;-78
2023/05/20 07:50:49;;;;;;;;;17.00;15.00;;;;;;;;5069572;28;8878;-75
2023/05/20 07:53:16;;;;;;;;;14.50;14.50;;;;;;;;5081322;28;8867;-75
2023/05/20 07:55:43;;;;;;;;;19.25;16.75;;;;;;;;5068216;28;8866;-80
2023/05/20 07:58:12;;;;;;;;;16.67;16.00;;;;;;;;5066082;28;9641;-78
2023/05/20 08:00:41;;;;;;;;;18.00;15.50;;;;;;;;5068995;28;8783;-78
2023/05/20 08:03:08;;;;;;;;;20.75;18.75;;;;;;;;5068932;28;9699;-78
2023/05/20 08:05:37;;;;;;;;;19.25;17.25;;;;;;;;5079608;28;9668;-81
2023/05/20 08:08:05;;;;;;;;;16.50;16.50;;;;;;;;5065505;28;8851;-81
2023/05/20 08:10:32;;;;;;;;;15.75;14.00;;;;;;;;5070791;28;8931;-83
2023/05/20 08:13:00;;;;;;;;;17.75;16.75;;;;;;;;5062799;28;8869;-80
2023/05/20 08:15:28;;;;;;;;;15.50;14.00;;;;;;;;5055500;28;8975;-81
2023/05/20 08:17:55;;;;;;;;;15.00;15.00;;;;;;;;5062450;28;8869;-79
2023/05/20 08:20:25;;;;;;;;;17.50;14.50;;;;;;;;5066903;28;8989;-79
2023/05/20 08:22:52;;;;;;;;;14.00;14.00;;;;;;;;5068651;28;8877;-79
2023/05/20 08:25:19;;;;;;;;;12.75;11.25;;;;;;;;5050416;28;8993;-78
2023/05/20 08:27:48;;;;;;;;;9.25;9.25;;;;;;;;5068905;28;8874;-78
2023/05/20 08:30:15;;;;;;;;;13.75;13.75;;;;;;;;5054917;28;8847;-77
2023/05/20 08:32:44;;;;;;;;;12.00;12.00;;;;;;;;5068122;28;8976;-77
2023/05/20 08:35:11;;;;;;;;;12.50;10.75;;;;;;;;5061470;28;8897;-82
2023/05/20 08:37:38;;;;;;;;;10.50;9.25;;;;;;;;5068850;28;8913;-79
2023/05/20 08:40:08;;;;;;;;;12.25;11.00;;;;;;;;5068622;28;8854;-82
2023/05/20 08:42:35;;;;;;;;;11.00;11.00;;;;;;;;5068352;28;8846;-82
2023/05/20 08:45:03;;;;;;;;;12.50;12.50;;;;;;;;5068024;28;8889;-76
2023/05/20 08:47:32;;;;;;;;;13.50;11.25;;;;;;;;5061531;28;8873;-86
2023/05/20 08:50:00;;;;;;;;;11.75;11.75;;;;;;;;5062312;28;8982;-80
2023/05/20 08:52:29;;;;;;;;;10.00;10.00;;;;;;;;5058545;28;8877;-79
2023/05/20 08:54:57;;;;;;;;;10.25;8.00;;;;;;;;5055083;28;8845;-77
2023/05/20 08:57:24;;;;;;;;;8.25;7.25;;;;;;;;5067557;28;8847;-77
2023/05/20 08:59:51;;;;;;;;;7.60;7.60;;;;;;;;5067745;28;8873;-77
2023/05/20 09:02:19;;;;;;;;;7.00;7.00;;;;;;;;5065476;28;8823;-78
2023/05/20 09:04:46;;;;;;;;;9.40;8.20;;;;;;;;5065901;28;8851;-81
2023/05/20 09:07:14;;;;;;;;;7.40;7.40;;;;;;;;5067692;28;8871;-81
2023/05/20 09:09:42;;;;;;;;;9.00;7.60;;;;;;;;5063486;28;8880;-82
2023/05/20 09:12:10;;;;;;;;;6.00;6.00;;;;;;;;5063395;28;8881;-79
2023/05/20 09:14:37;;;;;;;;;7.60;7.60;;;;;;;;5061868;28;8866;-80
2023/05/20 09:17:07;;;;;;;;;7.20;7.20;;;;;;;;5058725;28;8980;-79
2023/05/20 09:19:34;;;;;;;;;7.00;7.00;;;;;;;;5064088;28;8998;-81
2023/05/20 09:22:05;;;;;;;;;12.00;10.00;;;;;;;;5064334;28;8859;-79
2023/05/20 09:24:33;;;;;;;;;8.00;7.00;;;;;;;;5065510;28;8877;-79
2023/05/20 09:27:00;;;;;;;;;6.00;6.00;;;;;;;;5067677;28;8870;-78
2023/05/20 09:29:27;;;;;;;;;7.60;7.40;;;;;;;;5068571;28;8893;-82
2023/05/20 09:31:57;;;;;;;;;7.60;6.80;;;;;;;;5065748;28;8941;-79
2023/05/20 09:34:24;;;;;;;;;8.40;6.80;;;;;;;;5066874;28;8831;-78
2023/05/20 09:36:51;;;;;;;;;7.80;5.60;;;;;;;;5067907;28;8882;-77
2023/05/20 09:39:25;;;;;;;;;7.00;7.00;;;;;;;;5063960;28;8823;-78
2023/05/20 09:41:57;;;;;;;;;5.60;5.60;;;;;;;;5069100;28;8852;-78
2023/05/20 09:44:25;;;;;;;;;5.20;5.20;;;;;;;;5052961;28;8991;-75
2023/05/20 09:46:53;;;;;;;;;6.80;6.80;;;;;;;;5061626;28;8996;-76
2023/05/20 09:49:21;;;;;;;;;7.00;7.00;;;;;;;;5067674;28;8851;-81
2023/05/20 09:51:48;;;;;;;;;7.20;7.20;;;;;;;;5068666;28;8839;-79
2023/05/20 09:54:17;;;;;;;;;13.00;11.60;;;;;;;;5066042;28;8970;-78
2023/05/20 09:56:45;;;;;;;;;5.60;5.60;;;;;;;;5070796;28;8857;-85
2023/05/20 09:59:15;;;;;;;;;8.20;8.20;;;;;;;;5070759;28;8858;-85
2023/05/20 10:01:42;;;;;;;;;12.00;12.00;;;;;;;;5061370;28;8813;-75
2023/05/20 10:04:11;;;;;;;;;7.80;7.80;;;;;;;;5071914;28;8867;-79
2023/05/20 10:07:05;;;;;;;;;6.20;6.20;;;;;;;;5066032;28;8854;-79
2023/05/20 10:09:48;;;;;;;;;8.00;8.00;;;;;;;;5064777;28;9023;-76
2023/05/20 10:12:23;;;;;;;;;4.00;4.00;;;;;;;;5064996;28;8858;-76
2023/05/20 10:15:05;;;;;;;;;7.40;7.40;;;;;;;;5065569;28;8854;-78
2023/05/20 10:17:41;;;;;;;;;6.80;6.80;;;;;;;;5053086;28;8861;-76
2023/05/20 10:21:57;;;;;;;;;7.00;7.00;;;;;;;;5102835;27;13559;-78
2023/05/20 10:24:31;;;;;;;;;8.60;7.80;;;;;;;;5084984;28;8838;-78
2023/05/20 10:26:59;;;;;;;;;5.60;5.60;;;;;;;;5080150;28;8884;-79
2023/05/20 10:29:26;;;;;;;;;7.00;7.00;;;;;;;;5075351;28;9645;-77
2023/05/20 10:31:53;;;;;;;;;5.80;5.80;;;;;;;;5060953;28;8814;-80
2023/05/20 10:34:22;;;;;;;;;8.80;7.60;;;;;;;;5064456;28;8873;-76
2023/05/20 10:37:00;;;;;;;;;8.20;7.20;;;;;;;;5065173;28;9653;-77
2023/05/20 10:39:28;;;;;;;;;8.20;6.40;;;;;;;;5052320;28;9717;-77
2023/05/20 10:42:07;;;;;;;;;6.80;6.80;;;;;;;;5062010;28;8843;-79
2023/05/20 10:44:44;;;;;;;;;6.60;6.60;;;;;;;;5064845;28;8857;-80
2023/05/20 10:47:11;;;;;;;;;6.00;6.00;;;;;;;;5054256;28;8999;-77
2023/05/20 10:49:44;;;;;;;;;7.40;7.40;;;;;;;;5063295;28;8960;-77
2023/05/20 10:52:14;;;;;;;;;5.80;5.80;;;;;;;;5061148;28;8835;-77
2023/05/20 10:54:45;;;;;;;;;5.00;5.00;;;;;;;;5060493;28;8859;-76
2023/05/20 10:57:12;;;;;;;;;7.00;6.00;;;;;;;;5063975;28;8843;-77
2023/05/20 10:59:40;;;;;;;;;5.20;5.20;;;;;;;;5058055;28;8858;-76
2023/05/20 11:02:08;;;;;;;;;6.60;6.60;;;;;;;;5081084;28;8907;-77
2023/05/20 11:04:36;;;;;;;;;6.00;6.00;;;;;;;;5064215;28;8856;-76
2023/05/20 11:07:03;;;;;;;;;8.40;8.00;;;;;;;;5067067;28;8855;-77
2023/05/20 11:09:33;;;;;;;;;9.20;7.60;;;;;;;;5066273;28;8907;-81
2023/05/20 11:12:00;;;;;;;;;12.80;8.00;;;;;;;;5060787;28;8858;-78
2023/05/20 11:14:28;;;;;;;;;5.00;5.00;;;;;;;;5073053;28;8852;-78
2023/05/20 11:16:57;;;;;;;;;8.00;6.40;;;;;;;;5069638;28;8851;-78
2023/05/20 11:19:25;;;;;;;;;8.80;7.20;;;;;;;;5067743;28;8824;-85
2023/05/20 11:21:52;;;;;;;;;7.20;7.00;;;;;;;;5071645;28;8936;-84
2023/05/20 11:24:25;;;;;;;;;5.80;5.80;;;;;;;;5060382;28;8888;-83
2023/05/20 11:26:54;;;;;;;;;8.80;6.80;;;;;;;;5079368;28;8861;-79
2023/05/20 11:29:22;;;;;;;;;7.00;5.20;;;;;;;;5069987;28;8865;-80
2023/05/20 11:31:51;;;;;;;;;4.80;4.80;;;;;;;;5050382;28;8838;-81
2023/05/20 11:34:21;;;;;;;;;7.20;7.20;;;;;;;;5053981;28;8920;-82
2023/05/20 11:36:49;;;;;;;;;21.00;21.00;;;;;;;;5040041;28;8896;-79
2023/05/20 11:39:17;;;;;;;;;6.20;6.20;;;;;;;;5039201;28;8835;-80
2023/05/20 11:41:44;;;;;;;;;6.80;6.80;;;;;;;;5041714;28;8869;-79
2023/05/20 11:44:13;;;;;;;;;9.40;7.60;;;;;;;;5050786;28;8924;-81
2023/05/20 11:46:45;;;;;;;;;8.60;7.00;;;;;;;;5060108;28;8862;-78
2023/05/20 11:49:13;;;;;;;;;8.00;8.00;;;;;;;;5045358;28;8853;-79
2023/05/20 11:51:41;;;;;;;;;2.40;2.40;;;;;;;;5034717;28;8875;-77
2023/05/20 11:54:09;;;;;;;;;7.40;7.40;;;;;;;;5043111;28;8867;-78
2023/05/20 11:56:37;;;;;;;;;8.40;7.20;;;;;;;;5044281;28;9666;-79
2023/05/20 11:59:05;;;;;;;;;6.00;6.00;;;;;;;;5061409;28;8875;-76
2023/05/20 12:01:39;;;;;;;;;4.20;4.20;;;;;;;;5050489;28;8831;-76
2023/05/20 12:04:06;;;;;;;;;7.20;7.00;;;;;;;;5056706;28;8983;-77
2023/05/20 12:06:34;;;;;;;;;6.20;6.20;;;;;;;;5051199;28;8972;-77
2023/05/20 12:09:05;;;;;;;;;4.80;4.80;;;;;;;;5053312;28;8996;-75
2023/05/20 12:11:33;;;;;;;;;7.20;7.20;;;;;;;;5049835;28;8861;-76
2023/05/20 12:14:00;;;;;;;;;6.60;6.60;;;;;;;;5051829;28;8857;-81
2023/05/20 12:16:28;;;;;;;;;7.40;7.40;;;;;;;;5047365;28;8862;-78
2023/05/20 12:18:56;;;;;;;;;8.40;6.00;;;;;;;;5040738;28;8847;-77
2023/05/20 12:21:24;;;;;;;;;7.60;7.60;;;;;;;;5054618;28;8830;-78
2023/05/20 12:23:56;;;;;;;;;6.80;6.80;;;;;;;;5037331;28;8875;-78
2023/05/20 12:26:23;;;;;;;;;6.20;6.20;;;;;;;;5030879;28;8913;-77
2023/05/20 12:28:50;;;;;;;;;7.80;6.60;;;;;;;;5049112;28;8850;-77
2023/05/20 12:31:17;;;;;;;;;5.80;5.80;;;;;;;;5048810;28;8790;-76
2023/05/20 12:33:45;;;;;;;;;8.40;7.40;;;;;;;;5049920;28;8854;-77
2023/05/20 12:36:14;;;;;;;;;5.00;5.00;;;;;;;;5049270;28;8878;-77
2023/05/20 12:38:41;;;;;;;;;4.20;4.20;;;;;;;;5050244;28;9715;-77
2023/05/20 12:41:08;;;;;;;;;4.00;4.00;;;;;;;;5049271;28;8841;-77
2023/05/20 12:43:36;;;;;;;;;6.20;6.20;;;;;;;;5048258;28;8868;-77
2023/05/20 12:46:03;;;;;;;;;4.40;4.40;;;;;;;;5049189;28;9757;-76
2023/05/20 12:48:30;;;;;;;;;5.40;4.60;;;;;;;;5057390;28;8855;-77
2023/05/20 12:50:57;;;;;;;;;6.00;4.20;;;;;;;;5063369;28;8875;-77
2023/05/20 12:53:26;;;;;;;;;7.80;6.20;;;;;;;;5058383;28;8862;-77
2023/05/20 12:55:53;;;;;;;;;4.00;4.00;;;;;;;;5049422;28;8838;-77
2023/05/20 12:58:20;;;;;;;;;5.20;5.20;;;;;;;;5062388;28;8867;-77
2023/05/20 13:00:48;;;;;;;;;5.40;5.40;;;;;;;;5066729;28;8795;-77
2023/05/20 13:03:15;;;;;;;;;4.40;4.40;;;;;;;;5060868;28;8876;-77
2023/05/20 13:05:42;;;;;;;;;5.80;5.80;;;;;;;;5060728;28;8856;-77
2023/05/20 13:08:11;;;;;;;;;6.20;6.20;;;;;;;;5047655;28;9742;-76
2023/05/20 13:10:40;;;;;;;;;5.80;5.80;;;;;;;;5058057;28;8867;-77
2023/05/20 13:13:07;;;;;;;;;5.20;5.20;;;;;;;;5056487;28;8854;-77
2023/05/20 13:15:34;;;;;;;;;2.80;2.80;;;;;;;;5058539;28;8871;-77
2023/05/20 13:18:02;;;;;;;;;8.00;8.00;;;;;;;;5059744;28;8850;-78
2023/05/20 13:20:29;;;;;;;;;6.80;6.80;;;;;;;;5057037;28;8845;-78
2023/05/20 13:22:57;;;;;;;;;8.80;7.20;;;;;;;;5053104;28;8981;-76
2023/05/20 13:25:24;;;;;;;;;7.20;7.20;;;;;;;;5050428;28;9006;-77
2023/05/20 13:27:52;;;;;;;;;7.60;7.60;;;;;;;;5051718;28;8861;-77
2023/05/20 13:30:20;;;;;;;;;6.80;6.80;;;;;;;;5050485;28;8861;-76
2023/05/20 13:32:47;;;;;;;;;6.20;6.20;;;;;;;;5049679;28;8884;-77
2023/05/20 13:35:15;;;;;;;;;9.20;8.20;;;;;;;;5043779;28;8990;-76
2023/05/20 13:37:42;;;;;;;;;8.40;8.20;;;;;;;;5059908;28;8947;-77
2023/05/20 13:40:11;;;;;;;;;5.00;5.00;;;;;;;;5043467;28;8884;-77
2023/05/20 13:42:38;;;;;;;;;5.40;5.40;;;;;;;;5034793;28;8868;-77
2023/05/20 13:45:08;;;;;;;;;6.00;6.00;;;;;;;;5048456;28;8849;-77
2023/05/20 13:47:35;;;;;;;;;6.00;6.00;;;;;;;;5047716;28;8865;-77
2023/05/20 13:50:02;;;;;;;;;8.00;6.80;;;;;;;;5048124;28;8857;-76
2023/05/20 13:52:29;;;;;;;;;6.20;6.20;;;;;;;;5035655;28;9620;-77
2023/05/20 13:54:57;;;;;;;;;5.40;5.40;;;;;;;;5046605;28;8864;-77
2023/05/20 13:57:25;;;;;;;;;7.20;5.20;;;;;;;;5047452;28;9637;-77
2023/05/20 13:59:52;;;;;;;;;4.40;4.40;;;;;;;;5046098;28;8865;-77
2023/05/20 14:02:20;;;;;;;;;6.20;6.20;;;;;;;;5063308;28;8821;-77
2023/05/20 14:04:48;;;;;;;;;7.00;7.00;;;;;;;;5061648;28;8961;-77
2023/05/20 14:07:18;;;;;;;;;7.80;7.80;;;;;;;;5066678;28;8860;-77
2023/05/20 14:09:45;;;;;;;;;5.60;5.60;;;;;;;;5065334;28;8954;-77
2023/05/20 14:12:12;;;;;;;;;7.20;7.20;;;;;;;;5066448;28;8867;-74
2023/05/20 14:14:39;;;;;;;;;8.40;7.40;;;;;;;;5065108;28;9000;-77
2023/05/20 14:17:06;;;;;;;;;7.80;7.80;;;;;;;;5066709;28;8860;-77
2023/05/20 14:19:35;;;;;;;;;5.60;5.60;;;;;;;;5064706;28;8844;-77
2023/05/20 14:22:02;;;;;;;;;7.80;7.40;;;;;;;;5066340;28;8848;-78
2023/05/20 14:24:30;;;;;;;;;6.80;6.80;;;;;;;;5064703;28;8862;-77
2023/05/20 14:26:57;;;;;;;;;5.80;5.80;;;;;;;;5055669;28;8859;-77
2023/05/20 14:29:24;;;;;;;;;8.20;6.60;;;;;;;;5063057;28;8832;-77
2023/05/20 14:31:51;;;;;;;;;6.40;6.40;;;;;;;;5054915;28;8823;-77
2023/05/20 14:34:18;;;;;;;;;5.00;5.00;;;;;;;;5047413;28;8851;-77
2023/05/20 14:36:47;;;;;;;;;6.00;6.00;;;;;;;;5047815;28;8863;-78
2023/05/20 14:39:14;;;;;;;;;6.00;6.00;;;;;;;;5051384;28;8844;-77
2023/05/20 14:41:41;;;;;;;;;7.60;6.80;;;;;;;;5053842;28;8847;-77
2023/05/20 14:44:09;;;;;;;;;4.80;4.80;;;;;;;;5047510;28;8843;-78